createdAt,value
2023-05-22T00:00:01.360Z,19.70
2023-05-22T00:05:07.716Z,19.50
2023-05-22T00:10:11.660Z,19.50
2023-05-22T00:15:15.085Z,19.40
2023-05-22T00:20:19.907Z,19.20
2023-05-22T00:25:23.767Z,19.20
2023-05-22T00:30:27.287Z,19.00
2023-05-22T00:35:32.250Z,19.00
2023-05-22T00:40:35.659Z,19.00
2023-05-22T00:45:39.336Z,18.80
2023-05-22T00:50:44.300Z,18.80
2023-05-22T00:55:48.171Z,18.70
2023-05-22T01:00:52.354Z,18.60
2023-05-22T01:05:57.107Z,18.40
2023-05-22T01:11:05.402Z,18.30
2023-05-22T01:16:18.980Z,18.30
2023-05-22T01:21:30.175Z,18.30
2023-05-22T01:26:59.787Z,18.00
2023-05-22T01:32:06.493Z,17.90
2023-05-22T01:37:10.913Z,17.70
2023-05-22T01:42:15.268Z,17.50
2023-05-22T01:47:20.409Z,17.50
2023-05-22T01:52:30.145Z,17.40
2023-05-22T01:57:43.821Z,17.20
2023-05-22T02:02:56.433Z,17.30
2023-05-22T02:08:01.586Z,17.10
2023-05-22T02:13:05.557Z,16.90
2023-05-22T02:18:13.384Z,16.90
2023-05-22T02:23:16.973Z,16.70
2023-05-22T02:28:20.438Z,16.40
2023-05-22T02:33:27.025Z,16.30
2023-05-22T02:38:30.692Z,16.50
2023-05-22T02:43:34.688Z,16.30
2023-05-22T02:48:39.847Z,16.30
2023-05-22T02:53:43.856Z,16.20
2023-05-22T02:58:47.235Z,16.20
2023-05-22T03:03:52.058Z,16.00
2023-05-22T03:08:56.482Z,16.00
2023-05-22T03:14:00.725Z,15.90
2023-05-22T03:19:10.420Z,16.00
2023-05-22T03:24:14.546Z,15.90
2023-05-22T03:29:18.171Z,16.00
2023-05-22T03:34:23.132Z,15.90
2023-05-22T03:39:27.305Z,16.00
2023-05-22T03:44:50.282Z,16.10
2023-05-22T03:49:56.822Z,16.10
2023-05-22T03:55:00.443Z,16.10
2023-05-22T04:00:09.898Z,16.30
2023-05-22T04:05:17.949Z,16.30
2023-05-22T04:10:23.478Z,16.40
2023-05-22T04:15:27.181Z,16.60
2023-05-22T04:20:32.321Z,16.80
2023-05-22T04:25:36.501Z,16.90
2023-05-22T04:30:40.507Z,17.00
2023-05-22T04:35:45.623Z,16.90
2023-05-22T04:40:50.268Z,17.20
2023-05-22T04:45:54.914Z,17.40
2023-05-22T04:51:02.925Z,17.80
2023-05-22T04:56:07.592Z,18.40
2023-05-22T05:01:11.759Z,18.80
2023-05-22T05:06:17.361Z,19.00
2023-05-22T05:11:21.694Z,19.30
2023-05-22T05:16:26.357Z,19.10
2023-05-22T05:21:31.490Z,19.20
2023-05-22T05:26:37.311Z,19.10
2023-05-22T05:31:41.754Z,19.60
2023-05-22T05:36:52.533Z,20.80
2023-05-22T05:41:58.509Z,21.60
2023-05-22T05:47:02.503Z,22.00
2023-05-22T05:52:08.433Z,22.40
2023-05-22T05:57:14.660Z,22.90
2023-05-22T06:02:19.357Z,22.50
2023-05-22T06:07:25.369Z,22.40
2023-05-22T06:12:32.079Z,21.90
2023-05-22T06:17:35.782Z,21.10
2023-05-22T06:22:41.108Z,21.00
2023-05-22T06:27:45.716Z,21.10
2023-05-22T06:32:49.919Z,21.80
2023-05-22T06:37:57.355Z,22.40
2023-05-22T06:43:02.484Z,21.90
2023-05-22T06:48:14.706Z,22.60
2023-05-22T06:53:34.222Z,22.90
2023-05-22T06:58:38.889Z,22.80
2023-05-22T07:03:43.269Z,23.70
2023-05-22T07:09:11.361Z,23.70
2023-05-22T07:14:15.368Z,22.70
2023-05-22T07:19:20.084Z,23.00
2023-05-22T07:24:25.035Z,23.50
2023-05-22T07:29:29.002Z,25.00
2023-05-22T07:34:34.638Z,25.20
2023-05-22T07:39:42.709Z,26.00
2023-05-22T07:44:46.990Z,27.30
2023-05-22T07:49:51.739Z,26.80
2023-05-22T07:54:57.553Z,25.50
2023-05-22T08:00:09.641Z,25.60
2023-05-22T08:05:16.323Z,26.70
2023-05-22T08:10:21.136Z,26.40
2023-05-22T08:15:24.571Z,27.00
2023-05-22T08:20:28.171Z,27.70
2023-05-22T08:25:33.016Z,26.80
2023-05-22T08:30:37.886Z,26.20
2023-05-22T08:35:41.511Z,27.60
2023-05-22T08:40:49.910Z,28.60
2023-05-22T08:45:57.914Z,26.90
2023-05-22T08:51:04.061Z,26.40
2023-05-22T08:56:09.377Z,26.20
2023-05-22T09:01:14.464Z,26.70
2023-05-22T09:06:18.655Z,27.60
2023-05-22T09:11:23.441Z,28.20
2023-05-22T09:16:27.192Z,27.40
2023-05-22T09:21:31.381Z,27.10
2023-05-22T09:26:39.507Z,27.30
2023-05-22T09:31:44.647Z,26.30
2023-05-22T09:36:51.638Z,25.70
2023-05-22T09:42:01.594Z,26.60
2023-05-22T09:47:07.393Z,27.60
2023-05-22T09:52:12.726Z,27.90
2023-05-22T09:57:19.598Z,27.40
2023-05-22T10:02:24.240Z,27.60
2023-05-22T10:07:34.435Z,27.40
2023-05-22T10:12:43.405Z,26.50
2023-05-22T10:17:48.206Z,26.90
2023-05-22T10:22:53.404Z,27.50
2023-05-22T10:27:59.821Z,28.50
2023-05-22T10:33:09.769Z,27.90
2023-05-22T10:38:39.307Z,27.10
2023-05-22T10:43:48.316Z,27.30
2023-05-22T10:48:55.391Z,28.30
2023-05-22T10:54:02.258Z,28.20
2023-05-22T10:59:08.455Z,28.10
2023-05-22T11:04:12.493Z,28.10
2023-05-22T11:09:19.725Z,28.40
2023-05-22T11:14:26.184Z,28.00
2023-05-22T11:19:29.712Z,28.30
2023-05-22T11:24:34.386Z,28.90
2023-05-22T11:29:44.546Z,28.20
2023-05-22T11:34:50.482Z,28.50
2023-05-22T11:39:57.164Z,29.70
2023-05-22T11:45:02.382Z,29.70
2023-05-22T11:50:09.918Z,29.60
2023-05-22T11:55:13.398Z,29.30
2023-05-22T12:00:19.909Z,29.00
2023-05-22T12:05:23.549Z,28.40
2023-05-22T12:10:27.036Z,29.30
2023-05-22T12:15:31.957Z,29.00
2023-05-22T12:20:35.756Z,29.20
2023-05-22T12:25:39.346Z,28.90
2023-05-22T12:30:44.300Z,29.10
2023-05-22T12:35:52.157Z,29.60
2023-05-22T12:40:56.612Z,28.60
2023-05-22T12:46:02.835Z,29.00
2023-05-22T12:51:06.747Z,29.40
2023-05-22T12:56:10.322Z,28.00
2023-05-22T13:01:16.379Z,29.10
2023-05-22T13:06:20.759Z,28.60
2023-05-22T13:11:26.606Z,27.70
2023-05-22T13:16:31.923Z,27.70
2023-05-22T13:21:36.444Z,28.70
2023-05-22T13:26:39.912Z,29.30
2023-05-22T13:31:45.146Z,28.40
2023-05-22T13:36:48.668Z,28.10
2023-05-22T13:41:53.246Z,28.30
2023-05-22T13:46:58.240Z,27.80
2023-05-22T13:52:01.772Z,27.80
2023-05-22T13:57:06.504Z,28.20
2023-05-22T14:02:11.466Z,28.60
2023-05-22T14:07:15.035Z,28.00
2023-05-22T14:12:19.027Z,28.90
2023-05-22T14:17:24.318Z,29.10
2023-05-22T14:22:28.054Z,28.50
2023-05-22T14:27:31.534Z,27.10
2023-05-22T14:32:36.305Z,26.70
2023-05-22T14:37:39.818Z,26.60
2023-05-22T14:42:43.365Z,27.10
2023-05-22T14:47:48.235Z,28.40
2023-05-22T14:52:51.860Z,28.00
2023-05-22T14:57:55.688Z,28.20
2023-05-22T15:03:02.966Z,28.40
2023-05-22T15:08:06.882Z,28.10
2023-05-22T15:13:11.761Z,27.60
2023-05-22T15:18:17.105Z,27.90
2023-05-22T15:23:25.642Z,27.50
2023-05-22T15:28:29.161Z,27.40
2023-05-22T15:33:34.389Z,27.30
2023-05-22T15:38:38.303Z,27.80
2023-05-22T15:43:41.815Z,27.60
2023-05-22T15:48:47.384Z,27.10
2023-05-22T15:53:51.625Z,26.90
2023-05-22T15:58:55.223Z,26.80
2023-05-22T16:04:01.073Z,27.20
2023-05-22T16:09:04.609Z,26.70
2023-05-22T16:14:08.305Z,26.80
2023-05-22T16:19:13.617Z,26.70
2023-05-22T16:24:17.338Z,26.30
2023-05-22T16:29:21.513Z,25.70
2023-05-22T16:34:26.316Z,25.40
2023-05-22T16:39:29.847Z,25.50
2023-05-22T16:44:33.355Z,25.50
2023-05-22T16:49:39.199Z,25.70
2023-05-22T16:54:42.656Z,26.10
2023-05-22T16:59:46.290Z,25.60
2023-05-22T17:04:51.309Z,25.60
2023-05-22T17:09:54.854Z,25.40
2023-05-22T17:14:58.537Z,25.40
2023-05-22T17:20:06.822Z,25.50
2023-05-22T17:25:10.670Z,25.00
2023-05-22T17:30:14.279Z,24.90
2023-05-22T17:35:19.674Z,24.80
2023-05-22T17:40:29.548Z,24.40
2023-05-22T17:45:49.533Z,24.20
2023-05-22T17:50:54.787Z,24.00
2023-05-22T17:55:58.432Z,23.80
2023-05-22T18:01:01.949Z,23.60
2023-05-22T18:06:07.371Z,23.40
2023-05-22T18:11:11.004Z,23.20
2023-05-22T18:16:18.557Z,23.10
2023-05-22T18:21:23.754Z,22.70
2023-05-22T18:26:27.524Z,22.60
2023-05-22T18:31:31.301Z,22.40
2023-05-22T18:36:36.097Z,22.30
2023-05-22T18:41:39.497Z,22.10
2023-05-22T18:46:42.950Z,21.70
2023-05-22T18:51:47.775Z,21.20
2023-05-22T18:56:51.285Z,21.10
2023-05-22T19:01:54.726Z,20.90
2023-05-22T19:07:00.338Z,20.60
2023-05-22T19:12:04.116Z,20.30
2023-05-22T19:17:08.202Z,20.20
2023-05-22T19:22:13.190Z,19.90
2023-05-22T19:27:17.478Z,19.60
2023-05-22T19:32:21.157Z,19.50
2023-05-22T19:37:26.255Z,19.30
2023-05-22T19:42:29.562Z,19.00
2023-05-22T19:47:33.073Z,19.00
2023-05-22T19:52:37.916Z,18.70
2023-05-22T19:57:44.467Z,18.50
2023-05-22T20:02:48.310Z,18.10
2023-05-22T20:07:53.127Z,17.80
2023-05-22T20:12:56.668Z,17.60
2023-05-22T20:18:02.478Z,17.50
2023-05-22T20:23:07.785Z,17.40
2023-05-22T20:28:11.228Z,17.30
2023-05-22T20:33:15.235Z,17.20
2023-05-22T20:38:20.478Z,17.00
2023-05-22T20:43:26.224Z,16.90
2023-05-22T20:48:29.742Z,16.80
2023-05-22T20:53:34.586Z,16.70
2023-05-22T20:58:39.187Z,16.60
2023-05-22T21:03:43.114Z,16.50
2023-05-22T21:08:47.998Z,16.50
2023-05-22T21:13:52.141Z,16.50
2023-05-22T21:18:56.432Z,16.40
2023-05-22T21:24:01.289Z,16.20
2023-05-22T21:29:05.049Z,16.10
2023-05-22T21:34:09.780Z,16.10
2023-05-22T21:39:14.775Z,16.10
2023-05-22T21:44:18.526Z,16.20
2023-05-22T21:49:22.776Z,16.20
2023-05-22T21:54:28.630Z,16.20
2023-05-22T21:59:32.139Z,16.10
2023-05-22T22:04:35.682Z,16.10
2023-05-22T22:09:40.823Z,16.00
2023-05-22T22:14:44.234Z,16.00
2023-05-22T22:19:47.650Z,16.00
2023-05-22T22:24:52.952Z,16.00
2023-05-22T22:29:56.447Z,15.90
2023-05-22T22:35:00.029Z,15.80
2023-05-22T22:40:05.636Z,15.70
2023-05-22T22:45:10.598Z,15.70
2023-05-22T22:50:14.362Z,15.70
2023-05-22T22:55:19.556Z,15.70
2023-05-22T23:00:23.690Z,15.60
2023-05-22T23:05:27.514Z,15.70
2023-05-22T23:10:32.240Z,15.90
2023-05-22T23:15:35.792Z,15.80
2023-05-22T23:20:39.407Z,15.80
2023-05-22T23:25:44.164Z,15.70
2023-05-22T23:30:47.513Z,15.70
2023-05-22T23:35:51.044Z,15.70
2023-05-22T23:40:55.727Z,15.70
2023-05-22T23:45:59.162Z,15.70
2023-05-22T23:51:02.751Z,15.60
2023-05-22T23:56:09.972Z,15.60
